Time;durP1;ratioP1;P1;durP2;ratioP2;P2;SDS_P1;SDS_P2;PMS_P1;PMS_P2;Temp;Humidity;BMP_temperature;BMP_pressure;BME280_temperature;BME280_humidity;BME280_pressure;Samples;Min_cycle;Max_cycle;Signal;HPM_P1;HPM_P2
2023/03/27 00:01:24;;;;;;;8.80;0.85;;;2.90;99.90;;;;;;5067877;28;20209;-77
2023/03/27 00:03:52;;;;;;;10.50;1.27;;;2.90;99.90;;;;;;5057553;28;20041;-79
2023/03/27 00:06:18;;;;;;;5.82;1.00;;;2.90;99.90;;;;;;5056188;28;20506;-78
2023/03/27 00:08:46;;;;;;;6.97;0.98;;;3.00;99.90;;;;;;5038232;28;20097;-79
2023/03/27 00:11:13;;;;;;;5.47;0.90;;;2.90;99.90;;;;;;5058592;28;20040;-79
2023/03/27 00:13:39;;;;;;;6.15;1.00;;;2.90;99.90;;;;;;5059912;28;20055;-79
2023/03/27 00:16:05;;;;;;;7.95;0.88;;;2.90;99.90;;;;;;5054714;28;20052;-80
2023/03/27 00:18:32;;;;;;;8.98;0.98;;;2.90;99.90;;;;;;5064952;28;20036;-79
2023/03/27 00:20:59;;;;;;;7.18;0.85;;;3.30;99.90;;;;;;5068508;28;20083;-79
2023/03/27 00:23:30;;;;;;;5.78;1.10;;;2.90;99.90;;;;;;5066208;28;20389;-79
2023/03/27 00:25:57;;;;;;;7.73;1.10;;;2.90;99.90;;;;;;5063357;28;20131;-79
2023/03/27 00:28:30;;;;;;;7.28;1.08;;;2.90;99.90;;;;;;5058186;28;20040;-77
2023/03/27 00:30:57;;;;;;;4.95;1.08;;;2.90;99.90;;;;;;5056263;28;20036;-78
2023/03/27 00:33:24;;;;;;;6.40;0.70;;;2.90;99.90;;;;;;5057239;28;20097;-77
2023/03/27 00:35:50;;;;;;;4.97;0.75;;;2.90;99.90;;;;;;5053022;28;20048;-78
2023/03/27 00:38:17;;;;;;;7.25;0.98;;;2.90;99.90;;;;;;5051559;28;20447;-78
2023/03/27 00:40:44;;;;;;;9.40;1.20;;;2.80;99.90;;;;;;5054859;28;20054;-78
2023/03/27 00:43:21;;;;;;;5.25;0.98;;;2.80;99.90;;;;;;5057132;28;20047;-78
2023/03/27 00:45:50;;;;;;;6.88;0.98;;;2.80;99.90;;;;;;5037543;28;20052;-78
2023/03/27 00:48:19;;;;;;;5.63;0.80;;;2.80;99.90;;;;;;5068484;28;20048;-79
2023/03/27 00:50:45;;;;;;;5.90;1.63;;;2.80;99.90;;;;;;5060289;28;20484;-79
2023/03/27 00:53:15;;;;;;;12.85;1.73;;;2.80;99.90;;;;;;5056029;28;20052;-79
2023/03/27 00:55:45;;;;;;;9.25;1.08;;;2.80;99.90;;;;;;5063953;28;20052;-78
2023/03/27 00:58:44;;;;;;;10.02;1.25;;;2.80;99.90;;;;;;5033648;28;20122;-79
2023/03/27 01:01:14;;;;;;;7.68;1.10;;;2.80;99.90;;;;;;5028248;28;20490;-79
2023/03/27 01:03:42;;;;;;;6.93;1.08;;;2.90;99.90;;;;;;5067300;28;20044;-79
2023/03/27 01:06:12;;;;;;;7.93;0.85;;;3.60;99.90;;;;;;5052776;28;20136;-79
2023/03/27 01:08:40;;;;;;;4.28;0.93;;;2.70;99.90;;;;;;5052798;28;20098;-79
2023/03/27 01:11:26;;;;;;;10.27;1.17;;;2.70;99.90;;;;;;5028660;28;20070;-79
2023/03/27 01:14:04;;;;;;;9.68;0.90;;;2.80;99.90;;;;;;5049124;28;20564;-79
2023/03/27 01:16:41;;;;;;;11.75;1.10;;;2.70;99.90;;;;;;5053814;28;20340;-79
2023/03/27 01:19:38;;;;;;;8.43;0.80;;;2.70;99.90;;;;;;5051190;28;20043;-79
2023/03/27 01:22:41;;;;;;;8.65;1.10;;;2.70;99.90;;;;;;5062100;28;20040;-79
2023/03/27 01:25:29;;;;;;;10.02;1.85;;;2.70;99.90;;;;;;5030576;28;20079;-78
2023/03/27 01:28:09;;;;;;;6.28;1.02;;;2.70;99.90;;;;;;5065902;28;20128;-79
2023/03/27 01:31:00;;;;;;;7.30;0.95;;;2.70;99.90;;;;;;5056250;28;20226;-78
2023/03/27 01:33:49;;;;;;;11.45;1.27;;;2.90;99.90;;;;;;5058917;28;20879;-79
2023/03/27 01:36:30;;;;;;;8.98;1.20;;;2.60;99.90;;;;;;5050581;28;20032;-78
2023/03/27 01:39:19;;;;;;;7.28;1.02;;;2.60;99.90;;;;;;5034006;28;20053;-77
2023/03/27 01:42:03;;;;;;;10.75;1.35;;;2.90;99.90;;;;;;5060992;28;20045;-79
2023/03/27 01:44:48;;;;;;;10.63;1.17;;;2.50;99.90;;;;;;5057102;28;20040;-80
2023/03/27 01:47:20;;;;;;;14.23;1.30;;;2.50;99.90;;;;;;5064345;28;20049;-79
2023/03/27 01:50:11;;;;;;;11.15;1.30;;;2.50;99.90;;;;;;5051414;28;20048;-79
2023/03/27 01:52:41;;;;;;;4.35;0.80;;;2.40;99.90;;;;;;5044911;28;20424;-79
2023/03/27 01:55:12;;;;;;;11.60;1.50;;;2.40;99.90;;;;;;5066458;28;20080;-78
2023/03/27 01:57:50;;;;;;;10.73;1.20;;;2.40;99.90;;;;;;5060790;28;20124;-79
2023/03/27 02:00:20;;;;;;;5.10;1.02;;;2.40;99.90;;;;;;5060363;28;20072;-77
2023/03/27 02:02:52;;;;;;;12.02;1.48;;;2.40;99.90;;;;;;5052970;28;20075;-77
2023/03/27 02:05:35;;;;;;;4.82;1.00;;;2.40;99.90;;;;;;5035195;28;20163;-78
2023/03/27 02:08:17;;;;;;;8.48;0.90;;;2.40;99.90;;;;;;5035172;28;20048;-79
2023/03/27 02:10:52;;;;;;;5.50;0.82;;;2.40;99.90;;;;;;5058391;28;20079;-78
2023/03/27 02:13:37;;;;;;;3.45;0.82;;;2.40;99.90;;;;;;5055755;28;20079;-79
2023/03/27 02:16:06;;;;;;;8.82;0.95;;;2.40;99.90;;;;;;5045739;28;20047;-79
2023/03/27 02:18:36;;;;;;;8.70;1.23;;;2.40;99.90;;;;;;5063792;28;20044;-79
2023/03/27 02:21:02;;;;;;;7.40;1.13;;;2.40;99.90;;;;;;5069895;28;20045;-79
2023/03/27 02:23:31;;;;;;;7.32;1.00;;;2.40;99.90;;;;;;5041303;28;20045;-79
2023/03/27 02:25:58;;;;;;;12.30;2.65;;;3.20;99.90;;;;;;5061225;28;20055;-79
2023/03/27 02:28:53;;;;;;;9.45;2.15;;;2.50;99.90;;;;;;5070819;28;20075;-80
2023/03/27 02:31:31;;;;;;;10.23;1.75;;;2.60;99.90;;;;;;5043716;28;20076;-79
2023/03/27 02:34:05;;;;;;;13.60;1.75;;;2.60;99.90;;;;;;5039974;28;20047;-78
2023/03/27 02:36:53;;;;;;;9.23;1.70;;;2.70;99.90;;;;;;5050712;28;20119;-80
2023/03/27 02:39:22;;;;;;;12.75;2.45;;;2.70;99.90;;;;;;5064659;28;20552;-79
2023/03/27 02:41:57;;;;;;;13.07;1.73;;;2.70;99.90;;;;;;5063801;28;20048;-79
2023/03/27 02:44:55;;;;;;;11.43;1.77;;;2.70;99.90;;;;;;5057442;28;20127;-79
2023/03/27 02:47:40;;;;;;;13.02;1.40;;;2.70;99.90;;;;;;5038866;28;20044;-79
2023/03/27 02:50:22;;;;;;;12.95;1.67;;;2.60;99.90;;;;;;5051053;28;20048;-77
2023/03/27 02:52:56;;;;;;;11.77;1.60;;;2.70;99.90;;;;;;5046154;28;20056;-79
2023/03/27 02:55:33;;;;;;;8.60;1.48;;;2.70;99.90;;;;;;5064891;28;20105;-79
2023/03/27 02:58:06;;;;;;;11.32;1.38;;;2.70;99.90;;;;;;5048400;28;20044;-79
2023/03/27 03:00:38;;;;;;;12.23;1.50;;;2.70;99.90;;;;;;5068315;28;20040;-79
2023/03/27 03:03:26;;;;;;;8.15;1.90;;;2.60;99.90;;;;;;5053383;28;20250;-79
2023/03/27 03:05:56;;;;;;;9.38;1.35;;;2.60;99.90;;;;;;5064933;28;20048;-78
2023/03/27 03:08:22;;;;;;;8.32;1.15;;;2.60;99.90;;;;;;5037693;28;20076;-78
2023/03/27 03:10:48;;;;;;;16.77;1.92;;;2.60;99.90;;;;;;5070855;28;20098;-79
2023/03/27 03:13:17;;;;;;;11.65;1.75;;;2.60;99.90;;;;;;5056705;28;20041;-79
2023/03/27 03:15:44;;;;;;;12.43;1.95;;;3.10;99.90;;;;;;5057291;28;20038;-79
2023/03/27 03:18:11;;;;;;;12.15;2.20;;;2.60;99.90;;;;;;5039854;28;20049;-79
2023/03/27 03:20:38;;;;;;;13.38;2.13;;;2.50;99.90;;;;;;5057071;28;20049;-79
2023/03/27 03:23:05;;;;;;;11.23;1.98;;;2.50;99.90;;;;;;5048429;28;20114;-79
2023/03/27 03:25:31;;;;;;;10.48;1.50;;;2.50;99.90;;;;;;5039953;28;20041;-79
2023/03/27 03:28:00;;;;;;;18.45;2.33;;;2.50;99.90;;;;;;5064599;28;20078;-79
2023/03/27 03:30:29;;;;;;;9.90;1.73;;;2.50;99.90;;;;;;5052738;28;20055;-78
2023/03/27 03:32:56;;;;;;;10.07;1.80;;;2.50;99.90;;;;;;5052336;28;20131;-79
2023/03/27 03:35:23;;;;;;;10.73;1.40;;;2.50;99.90;;;;;;5054164;28;20101;-79
2023/03/27 03:37:50;;;;;;;12.70;1.70;;;2.40;99.90;;;;;;5063857;28;20044;-78
2023/03/27 03:40:18;;;;;;;8.75;1.40;;;2.40;99.90;;;;;;5058564;28;20056;-79
2023/03/27 03:42:44;;;;;;;8.05;2.15;;;2.50;99.90;;;;;;5049877;28;20036;-78
2023/03/27 03:45:10;;;;;;;9.45;1.40;;;2.50;99.90;;;;;;5056478;28;20135;-78
2023/03/27 03:47:37;;;;;;;6.50;1.40;;;2.40;99.90;;;;;;5068165;28;20131;-80
2023/03/27 03:50:06;;;;;;;10.93;1.65;;;2.40;99.90;;;;;;5052500;28;20081;-80
2023/03/27 03:52:31;;;;;;;8.32;1.58;;;2.40;99.90;;;;;;5053555;28;20045;-79
2023/03/27 03:55:00;;;;;;;9.48;1.58;;;2.40;99.90;;;;;;5040781;28;20591;-79
2023/03/27 03:57:25;;;;;;;9.60;1.38;;;2.40;99.90;;;;;;5068341;28;20098;-80
2023/03/27 03:59:51;;;;;;;9.60;1.40;;;2.40;99.90;;;;;;5065752;28;20612;-79
2023/03/27 04:02:27;;;;;;;7.63;1.40;;;3.50;99.90;;;;;;5042073;28;20051;-80
2023/03/27 04:04:56;;;;;;;9.45;1.45;;;3.00;99.90;;;;;;5056671;28;20076;-79
2023/03/27 04:07:22;;;;;;;9.13;1.60;;;2.30;99.90;;;;;;5066804;28;20492;-79
2023/03/27 04:09:52;;;;;;;10.65;1.55;;;2.40;99.90;;;;;;5031971;28;20148;-79
2023/03/27 04:12:18;;;;;;;9.05;1.50;;;2.40;99.90;;;;;;5054583;28;20048;-79
2023/03/27 04:14:44;;;;;;;9.27;1.85;;;2.40;99.90;;;;;;5068246;28;20036;-79
2023/03/27 04:17:10;;;;;;;13.52;2.78;;;2.40;99.90;;;;;;5059257;28;20044;-79
2023/03/27 04:19:36;;;;;;;10.77;1.58;;;2.40;99.90;;;;;;5061054;28;20069;-80
2023/03/27 04:22:03;;;;;;;12.15;1.85;;;2.40;99.90;;;;;;5037118;28;20564;-79
2023/03/27 04:24:32;;;;;;;9.43;1.70;;;2.40;99.90;;;;;;5038579;28;20075;-79
2023/03/27 04:27:00;;;;;;;10.65;1.30;;;3.20;99.90;;;;;;5055693;28;20131;-79
2023/03/27 04:29:33;;;;;;;9.55;1.63;;;2.70;99.90;;;;;;5068101;28;20046;-79
2023/03/27 04:31:59;;;;;;;12.93;1.90;;;2.70;99.90;;;;;;5057242;28;20412;-80
2023/03/27 04:34:25;;;;;;;12.35;1.98;;;3.10;99.90;;;;;;5040540;28;20078;-79
2023/03/27 04:36:51;;;;;;;8.40;1.85;;;2.40;99.90;;;;;;5035989;28;20084;-80
2023/03/27 04:39:17;;;;;;;9.30;1.80;;;2.30;99.90;;;;;;5047012;28;20122;-79
2023/03/27 04:41:49;;;;;;;10.27;1.85;;;2.30;99.90;;;;;;5041193;28;20493;-79
2023/03/27 04:44:18;;;;;;;9.93;1.88;;;2.30;99.90;;;;;;5056546;28;20772;-80
2023/03/27 04:46:48;;;;;;;10.05;1.50;;;2.60;99.90;;;;;;5068085;28;20547;-79
2023/03/27 04:49:15;;;;;;;8.13;1.52;;;2.30;99.90;;;;;;5052078;28;20044;-80
2023/03/27 04:51:41;;;;;;;11.25;1.35;;;2.40;99.90;;;;;;5075933;28;20048;-80
2023/03/27 04:54:07;;;;;;;5.30;1.38;;;2.40;99.90;;;;;;5035698;28;20074;-78
2023/03/27 04:56:33;;;;;;;5.78;1.30;;;2.50;99.90;;;;;;5057011;28;20040;-79
2023/03/27 04:59:02;;;;;;;8.60;0.90;;;2.60;99.90;;;;;;5055814;28;20059;-80
2023/03/27 05:01:28;;;;;;;10.48;1.25;;;2.60;99.90;;;;;;5046016;28;20063;-78
2023/03/27 05:03:55;;;;;;;6.82;0.98;;;2.70;99.90;;;;;;5057368;28;20037;-79
2023/03/27 05:06:22;;;;;;;5.35;1.02;;;2.70;99.90;;;;;;5062381;28;20048;-79
2023/03/27 05:08:48;;;;;;;10.05;1.10;;;3.00;99.90;;;;;;5046604;28;20075;-80
2023/03/27 05:11:14;;;;;;;5.90;0.90;;;2.60;99.90;;;;;;5063959;28;20075;-78
2023/03/27 05:13:40;;;;;;;6.72;0.73;;;2.60;99.90;;;;;;5035796;28;20072;-79
2023/03/27 05:16:08;;;;;;;4.10;0.77;;;2.50;99.90;;;;;;5050169;28;20052;-79
2023/03/27 05:18:33;;;;;;;4.40;0.60;;;2.50;99.90;;;;;;5051281;28;20040;-79
2023/03/27 05:20:59;;;;;;;8.63;1.00;;;2.50;99.90;;;;;;5032497;28;20615;-79
2023/03/27 05:23:26;;;;;;;4.80;0.70;;;2.50;99.90;;;;;;5030510;28;20079;-78
2023/03/27 05:25:52;;;;;;;6.85;1.17;;;2.40;99.90;;;;;;5029103;28;20101;-79
2023/03/27 05:28:17;;;;;;;9.65;0.88;;;2.50;99.90;;;;;;5062576;28;20049;-80
2023/03/27 05:30:43;;;;;;;9.02;1.38;;;2.50;99.90;;;;;;5032152;28;20040;-79
2023/03/27 05:33:12;;;;;;;9.90;1.10;;;2.50;99.90;;;;;;5047811;28;20445;-79
2023/03/27 05:35:45;;;;;;;6.53;1.05;;;2.50;99.90;;;;;;5044737;28;20560;-81
2023/03/27 05:38:12;;;;;;;5.78;0.80;;;2.50;99.90;;;;;;5024744;28;20528;-80
2023/03/27 05:40:38;;;;;;;4.30;0.90;;;3.00;99.90;;;;;;5029223;28;20057;-80
2023/03/27 05:43:04;;;;;;;6.75;1.20;;;2.50;99.90;;;;;;5040170;28;20059;-79
2023/03/27 05:45:31;;;;;;;11.05;1.63;;;2.50;99.90;;;;;;5030852;28;20056;-79
2023/03/27 05:47:59;;;;;;;7.88;1.10;;;2.50;99.90;;;;;;5028426;28;20094;-79
2023/03/27 05:50:33;;;;;;;6.15;0.82;;;2.50;99.90;;;;;;5032913;28;20047;-80
2023/03/27 05:53:03;;;;;;;7.43;0.93;;;2.60;99.90;;;;;;5021525;28;20045;-79
2023/03/27 05:55:29;;;;;;;11.25;1.33;;;2.60;99.90;;;;;;5054052;28;20048;-79
2023/03/27 05:57:55;;;;;;;6.47;1.08;;;2.70;99.90;;;;;;5045224;28;20044;-79
2023/03/27 06:00:24;;;;;;;7.28;0.90;;;2.70;99.90;;;;;;5052878;28;20070;-80
2023/03/27 06:02:55;;;;;;;9.48;1.17;;;3.50;99.90;;;;;;5043964;28;20053;-79
2023/03/27 06:05:20;;;;;;;7.18;0.77;;;2.80;99.90;;;;;;5042254;28;20051;-78
2023/03/27 06:07:46;;;;;;;4.95;0.80;;;2.80;99.90;;;;;;5043701;28;20048;-79
2023/03/27 06:10:21;;;;;;;8.15;0.90;;;3.00;99.90;;;;;;5045254;28;20041;-78
2023/03/27 06:12:47;;;;;;;6.43;0.80;;;3.30;99.90;;;;;;5054064;28;20052;-78
2023/03/27 06:15:14;;;;;;;6.32;0.77;;;3.60;99.90;;;;;;5029843;28;20052;-78
2023/03/27 06:17:41;;;;;;;3.85;0.88;;;3.80;99.90;;;;;;5064299;28;20063;-79
2023/03/27 06:20:13;;;;;;;5.80;1.15;;;4.10;99.90;;;;;;5047219;28;20087;-79
2023/03/27 06:22:47;;;;;;;19.85;2.17;;;4.10;99.90;;;;;;5031018;28;20127;-79
2023/03/27 06:25:14;;;;;;;7.80;1.30;;;4.30;99.90;;;;;;5031194;28;20051;-80
2023/03/27 06:27:45;;;;;;;6.68;1.40;;;4.30;99.90;;;;;;5050682;28;20040;-79
2023/03/27 06:30:12;;;;;;;5.90;1.10;;;4.20;99.90;;;;;;5042747;28;20055;-79
2023/03/27 06:32:49;;;;;;;12.35;1.45;;;4.10;99.90;;;;;;5034499;28;20057;-78
2023/03/27 06:35:17;;;;;;;11.05;1.23;;;4.00;99.90;;;;;;5052326;28;20416;-78
2023/03/27 06:37:45;;;;;;;8.18;0.93;;;3.90;99.90;;;;;;5052776;28;20045;-78
2023/03/27 06:40:22;;;;;;;12.82;2.20;;;3.90;99.90;;;;;;5051811;28;20136;-79
2023/03/27 06:42:56;;;;;;;8.30;1.25;;;3.90;99.90;;;;;;5067757;28;20376;-79
2023/03/27 06:45:24;;;;;;;8.65;1.13;;;3.90;99.90;;;;;;5062349;28;20048;-79
2023/03/27 06:47:54;;;;;;;7.07;1.20;;;3.90;99.90;;;;;;5065811;28;20076;-78
2023/03/27 06:50:22;;;;;;;6.77;1.00;;;3.90;99.90;;;;;;5032496;28;20075;-78
2023/03/27 06:52:48;;;;;;;10.02;1.15;;;4.00;99.90;;;;;;5040194;28;20362;-77
2023/03/27 06:55:17;;;;;;;12.07;1.50;;;4.10;99.90;;;;;;5072870;28;20474;-78
2023/03/27 06:57:54;;;;;;;9.48;1.63;;;4.20;99.90;;;;;;5072500;28;20060;-79
2023/03/27 07:00:23;;;;;;;10.85;1.58;;;4.20;99.90;;;;;;5056529;28;20107;-77
2023/03/27 07:03:00;;;;;;;8.63;1.30;;;4.40;99.90;;;;;;5054998;28;20044;-79
2023/03/27 07:05:27;;;;;;;11.50;1.30;;;4.20;99.90;;;;;;5076819;28;20493;-78
2023/03/27 07:07:55;;;;;;;9.02;1.20;;;4.20;99.90;;;;;;5073480;28;20048;-78
2023/03/27 07:10:22;;;;;;;12.30;1.63;;;4.30;99.90;;;;;;5048567;28;20044;-78
2023/03/27 07:12:50;;;;;;;10.45;1.40;;;4.90;99.90;;;;;;5049021;28;20044;-77
2023/03/27 07:15:17;;;;;;;7.95;1.15;;;4.60;99.90;;;;;;5048629;28;20048;-79
2023/03/27 07:17:50;;;;;;;10.27;1.45;;;4.80;99.90;;;;;;5031712;28;20040;-77
2023/03/27 07:20:16;;;;;;;8.80;1.40;;;4.80;99.90;;;;;;5064872;28;20052;-78
2023/03/27 07:22:42;;;;;;;13.57;1.80;;;5.00;99.90;;;;;;5048294;28;20066;-78
2023/03/27 07:25:09;;;;;;;12.50;1.40;;;4.90;99.90;;;;;;5056919;28;20036;-78
2023/03/27 07:27:36;;;;;;;15.70;2.00;;;5.30;99.90;;;;;;5059182;28;20694;-79
2023/03/27 07:30:02;;;;;;;9.20;1.70;;;5.30;99.90;;;;;;5049932;28;20139;-78
2023/03/27 07:32:31;;;;;;;8.85;1.70;;;5.20;99.90;;;;;;5033670;28;20044;-78
2023/03/27 07:35:00;;;;;;;4.40;1.05;;;5.00;99.90;;;;;;5036179;28;20089;-78
2023/03/27 07:37:26;;;;;;;8.52;1.38;;;3.80;99.90;;;;;;5032611;28;20105;-78
2023/03/27 07:39:55;;;;;;;7.22;0.90;;;4.40;99.90;;;;;;5033490;28;20048;-77
2023/03/27 07:42:21;;;;;;;4.95;0.90;;;4.10;99.90;;;;;;5064034;28;20055;-79
2023/03/27 07:44:46;;;;;;;5.15;0.90;;;3.90;99.90;;;;;;5054346;28;20116;-79
2023/03/27 07:47:12;;;;;;;2.90;0.45;;;3.80;99.90;;;;;;5067033;28;20420;-78
2023/03/27 07:49:38;;;;;;;4.25;0.80;;;3.80;99.90;;;;;;5070820;28;20044;-79
2023/03/27 07:52:05;;;;;;;6.35;1.08;;;3.90;99.90;;;;;;5036390;28;20039;-78
2023/03/27 07:54:31;;;;;;;8.43;1.10;;;3.90;99.90;;;;;;5055328;28;20040;-80
2023/03/27 07:56:57;;;;;;;4.75;1.05;;;4.00;99.90;;;;;;5052638;28;20048;-77
2023/03/27 07:59:26;;;;;;;5.85;1.10;;;4.70;99.90;;;;;;5058759;28;20052;-78
2023/03/27 08:01:52;;;;;;;6.43;1.15;;;4.70;99.90;;;;;;5052792;28;20161;-76
2023/03/27 08:04:19;;;;;;;5.93;0.93;;;4.50;99.90;;;;;;5042698;28;20062;-79
2023/03/27 08:06:45;;;;;;;8.40;1.23;;;4.60;99.90;;;;;;5068561;28;20044;-78
2023/03/27 08:09:11;;;;;;;7.28;1.27;;;4.70;99.90;;;;;;5042788;28;20596;-78
2023/03/27 08:11:38;;;;;;;9.95;1.38;;;5.20;99.90;;;;;;5037650;28;20062;-78
2023/03/27 08:14:04;;;;;;;7.03;1.15;;;5.20;99.90;;;;;;5048237;28;20049;-78
2023/03/27 08:16:30;;;;;;;6.03;1.13;;;5.10;99.90;;;;;;5051271;28;20040;-76
2023/03/27 08:18:57;;;;;;;10.10;1.20;;;5.20;99.90;;;;;;5034722;28;20063;-76
2023/03/27 08:21:23;;;;;;;6.85;1.13;;;5.20;99.90;;;;;;5039765;28;20037;-78
2023/03/27 08:23:48;;;;;;;10.57;1.55;;;5.20;99.90;;;;;;5048504;28;20043;-77
2023/03/27 08:26:14;;;;;;;7.80;1.23;;;5.30;99.90;;;;;;5029000;28;20056;-76
2023/03/27 08:28:41;;;;;;;13.25;1.67;;;5.40;99.90;;;;;;5059145;28;20572;-78
2023/03/27 08:31:10;;;;;;;5.72;1.30;;;5.50;99.90;;;;;;5063832;28;20055;-77
2023/03/27 08:33:36;;;;;;;9.68;1.55;;;5.60;99.90;;;;;;5042194;28;20059;-77
2023/03/27 08:36:03;;;;;;;5.32;1.02;;;5.70;99.90;;;;;;5049013;28;20067;-79
2023/03/27 08:38:32;;;;;;;7.97;1.40;;;5.70;99.90;;;;;;5054939;28;20666;-79
2023/03/27 08:40:59;;;;;;;7.28;1.35;;;5.80;99.90;;;;;;5039692;28;20614;-77
2023/03/27 08:43:42;;;;;;;8.63;1.38;;;5.90;99.90;;;;;;5053759;28;20040;-76
2023/03/27 08:46:27;;;;;;;11.18;1.90;;;5.90;99.90;;;;;;5054809;28;20044;-77
2023/03/27 08:49:05;;;;;;;11.38;1.13;;;5.80;99.90;;;;;;5052505;28;20033;-77
2023/03/27 08:51:39;;;;;;;3.28;1.42;;;5.70;99.90;;;;;;5057006;28;20044;-78
2023/03/27 08:54:17;;;;;;;7.03;1.65;;;5.70;99.90;;;;;;5061625;28;20056;-77
2023/03/27 08:56:44;;;;;;;5.07;0.90;;;5.70;99.90;;;;;;5030509;28;20992;-77
2023/03/27 08:59:16;;;;;;;4.90;1.30;;;5.80;99.90;;;;;;5050106;28;21559;-78
2023/03/27 09:02:07;;;;;;;8.93;1.02;;;5.80;99.90;;;;;;5051800;28;20600;-78
2023/03/27 09:04:38;;;;;;;7.15;0.90;;;5.90;99.90;;;;;;5032053;28;20051;-77
2023/03/27 09:07:36;;;;;;;6.03;1.00;;;6.00;99.90;;;;;;5057878;28;20052;-79
2023/03/27 09:10:05;;;;;;;6.25;0.93;;;6.20;99.90;;;;;;5037646;28;20610;-80
2023/03/27 09:12:55;;;;;;;5.75;0.90;;;6.30;99.90;;;;;;5031064;28;20091;-79
2023/03/27 09:15:54;;;;;;;7.70;0.90;;;6.50;99.90;;;;;;5045615;28;20424;-76
2023/03/27 09:18:45;;;;;;;4.00;0.73;;;6.50;99.90;;;;;;5060039;28;20436;-77
2023/03/27 09:21:20;;;;;;;5.80;1.30;;;6.50;99.90;;;;;;4997355;28;20052;-77
2023/03/27 09:23:47;;;;;;;9.85;1.10;;;6.40;99.90;;;;;;5052597;28;20040;-78
2023/03/27 09:26:16;;;;;;;6.07;0.80;;;6.30;99.90;;;;;;5063882;28;20170;-77
2023/03/27 09:28:50;;;;;;;5.47;0.77;;;6.30;99.90;;;;;;5064196;28;20067;-76
2023/03/27 09:31:33;;;;;;;5.60;1.10;;;6.40;99.90;;;;;;5027887;28;20595;-77
2023/03/27 09:34:11;;;;;;;3.53;0.57;;;6.30;99.90;;;;;;5059027;28;20082;-78
2023/03/27 09:36:37;;;;;;;7.25;0.88;;;6.30;99.90;;;;;;5058980;28;20040;-77
2023/03/27 09:39:11;;;;;;;5.20;0.70;;;6.20;99.90;;;;;;5059046;28;20056;-77
2023/03/27 09:41:41;;;;;;;6.85;0.88;;;6.20;99.90;;;;;;5060268;28;20078;-79
2023/03/27 09:44:24;;;;;;;8.57;1.05;;;6.20;99.90;;;;;;5057854;28;20062;-76
2023/03/27 09:47:03;;;;;;;6.82;1.10;;;6.30;99.90;;;;;;5058746;28;20052;-75
2023/03/27 09:49:29;;;;;;;9.77;0.60;;;6.30;99.90;;;;;;5045990;28;20512;-76
2023/03/27 09:52:01;;;;;;;4.75;0.77;;;6.50;99.90;;;;;;5042717;28;20123;-75
2023/03/27 09:54:31;;;;;;;;;;;6.50;99.90;;;;;;5049822;28;20052;-76
2023/03/27 09:57:11;;;;;;;12.55;1.25;;;6.50;99.90;;;;;;5028683;28;20015;-76
2023/03/27 09:59:53;;;;;;;9.02;1.67;;;6.40;99.90;;;;;;5058603;28;20053;-76
2023/03/27 10:02:26;;;;;;;8.52;0.90;;;6.40;99.90;;;;;;5049993;28;20048;-76
2023/03/27 10:05:12;;;;;;;4.97;1.02;;;6.40;99.90;;;;;;5048022;28;20040;-77
2023/03/27 10:07:39;;;;;;;9.05;1.55;;;6.50;99.90;;;;;;5047317;28;20072;-78
2023/03/27 10:10:12;;;;;;;8.07;1.60;;;6.60;99.90;;;;;;5030178;28;20056;-77
2023/03/27 10:12:39;;;;;;;5.75;0.98;;;6.60;99.90;;;;;;5058470;28;20113;-76
2023/03/27 10:15:25;;;;;;;6.75;1.13;;;6.50;99.90;;;;;;5045509;28;20045;-76
2023/03/27 10:17:51;;;;;;;6.05;1.55;;;6.60;99.90;;;;;;5047152;28;20106;-78
2023/03/27 10:20:20;;;;;;;4.10;1.02;;;6.60;99.90;;;;;;5035622;28;20143;-77
2023/03/27 10:22:54;;;;;;;7.57;1.20;;;6.70;99.90;;;;;;5044425;28;20093;-77
2023/03/27 10:25:31;;;;;;;6.97;0.90;;;6.70;99.90;;;;;;5056920;28;20573;-78
2023/03/27 10:28:16;;;;;;;4.63;1.20;;;6.90;99.90;;;;;;5044439;28;20144;-78
2023/03/27 10:30:41;;;;;;;8.07;1.40;;;6.90;99.90;;;;;;5041555;28;20040;-76
2023/03/27 10:33:08;;;;;;;6.07;1.00;;;6.90;99.90;;;;;;5021052;28;20040;-76
2023/03/27 10:35:43;;;;;;;8.80;1.27;;;6.90;99.90;;;;;;5042111;28;20040;-76
2023/03/27 10:38:17;;;;;;;5.88;0.90;;;6.90;99.90;;;;;;5055290;28;20051;-77
2023/03/27 10:40:48;;;;;;;5.50;0.82;;;6.90;99.90;;;;;;5043192;28;20048;-77
2023/03/27 10:43:32;;;;;;;7.82;1.50;;;7.40;99.90;;;;;;5048190;28;20182;-77
2023/03/27 10:46:05;;;;;;;4.13;0.60;;;7.00;99.90;;;;;;5027416;28;20063;-78
2023/03/27 10:49:02;;;;;;;7.03;0.93;;;7.00;99.90;;;;;;5027447;28;20048;-78
2023/03/27 10:51:33;;;;;;;4.68;0.80;;;7.00;99.90;;;;;;5012771;28;20071;-77
2023/03/27 10:54:20;;;;;;;7.53;1.17;;;7.40;99.90;;;;;;5056736;28;20592;-77
2023/03/27 10:57:04;;;;;;;3.28;0.52;;;7.10;99.90;;;;;;5044068;28;20578;-77
2023/03/27 10:59:49;;;;;;;5.05;0.75;;;7.20;99.90;;;;;;5057843;28;20129;-79
2023/03/27 11:02:17;;;;;;;8.55;1.70;;;7.20;99.90;;;;;;5041240;28;20284;-76
2023/03/27 11:04:51;;;;;;;9.52;1.33;;;7.40;99.90;;;;;;5050843;28;20107;-76
2023/03/27 11:07:32;;;;;;;9.48;1.58;;;7.10;99.90;;;;;;5044335;28;20048;-77
2023/03/27 11:10:20;;;;;;;8.40;1.33;;;7.20;99.90;;;;;;5040881;28;20052;-75
2023/03/27 11:13:22;;;;;;;5.57;0.73;;;7.20;99.90;;;;;;5056517;28;20040;-78
2023/03/27 11:15:53;;;;;;;8.73;1.15;;;7.50;99.90;;;;;;5013887;28;20069;-76
2023/03/27 11:18:27;;;;;;;6.28;0.95;;;7.40;99.90;;;;;;5042434;28;20052;-77
2023/03/27 11:21:02;;;;;;;6.70;1.02;;;6.80;99.90;;;;;;5050351;28;20522;-77
2023/03/27 11:23:36;;;;;;;4.47;1.08;;;6.60;99.90;;;;;;5061738;28;20040;-76
2023/03/27 11:26:09;;;;;;;5.68;0.70;;;6.50;99.90;;;;;;5050810;28;20110;-76
2023/03/27 11:29:04;;;;;;;2.17;0.43;;;6.20;99.90;;;;;;5050363;28;20137;-77
2023/03/27 11:31:40;;;;;;;10.20;1.13;;;5.90;99.90;;;;;;5065911;28;20412;-77
2023/03/27 11:34:20;;;;;;;7.10;0.80;;;5.60;99.90;;;;;;5071612;28;20551;-76
2023/03/27 11:36:51;;;;;;;7.45;0.98;;;5.60;99.90;;;;;;5057283;28;20093;-76
2023/03/27 11:39:52;;;;;;;5.03;0.90;;;5.60;99.90;;;;;;5059503;28;20052;-77
2023/03/27 11:42:19;;;;;;;10.33;1.67;;;5.70;99.90;;;;;;5043872;28;20049;-76
2023/03/27 11:44:45;;;;;;;7.95;1.20;;;5.80;99.90;;;;;;5053616;28;20309;-77
2023/03/27 11:47:21;;;;;;;9.45;1.85;;;6.00;99.90;;;;;;5065940;28;20048;-77
2023/03/27 11:50:26;;;;;;;11.27;1.45;;;6.20;99.90;;;;;;5065646;28;20619;-78
2023/03/27 11:53:13;;;;;;;4.82;0.80;;;6.50;99.90;;;;;;5035795;28;20769;-78
2023/03/27 11:55:39;;;;;;;8.73;1.35;;;6.70;99.90;;;;;;5064024;28;20097;-75
2023/03/27 11:58:16;;;;;;;3.85;0.95;;;6.70;99.90;;;;;;5017677;28;20398;-77
2023/03/27 12:01:13;;;;;;;4.78;1.00;;;6.70;99.90;;;;;;5006179;28;20378;-77
2023/03/27 12:04:17;;;;;;;5.10;0.80;;;6.70;99.90;;;;;;5033199;28;20097;-76
2023/03/27 12:07:12;;;;;;;9.43;1.23;;;6.80;99.90;;;;;;4987498;28;20141;-78
2023/03/27 12:10:05;;;;;;;9.98;1.08;;;6.90;99.90;;;;;;4991433;28;20057;-77
2023/03/27 12:12:30;;;;;;;7.13;1.48;;;6.90;99.90;;;;;;4973840;28;20091;-76
2023/03/27 12:15:16;;;;;;;5.10;1.17;;;6.90;99.90;;;;;;4990516;28;20063;-75
2023/03/27 12:17:51;;;;;;;7.68;1.30;;;6.90;99.90;;;;;;4991119;28;20139;-77
2023/03/27 12:20:44;;;;;;;8.73;1.30;;;7.00;99.90;;;;;;4978866;28;20183;-77
2023/03/27 12:23:21;;;;;;;8.57;1.45;;;7.00;99.90;;;;;;4996714;28;20053;-77
2023/03/27 12:26:10;;;;;;;8.00;1.30;;;7.10;99.90;;;;;;4993508;28;20037;-78
2023/03/27 12:28:45;;;;;;;12.23;1.35;;;7.10;99.90;;;;;;4989234;28;20227;-77
2023/03/27 12:31:51;;;;;;;10.13;2.47;;;7.10;99.90;;;;;;4994696;28;20386;-77
2023/03/27 12:34:43;;;;;;;3.03;0.60;;;7.10;99.90;;;;;;4994956;28;20054;-80
2023/03/27 12:37:12;;;;;;;1.83;0.43;;;7.20;99.90;;;;;;4989470;28;20090;-79
2023/03/27 12:39:49;;;;;;;1.85;0.40;;;7.00;99.90;;;;;;5020764;28;20053;-79
2023/03/27 12:42:47;;;;;;;3.88;0.60;;;6.80;99.90;;;;;;5034406;28;20513;-78
2023/03/27 12:45:26;;;;;;;3.63;0.60;;;6.70;99.90;;;;;;5019227;28;20110;-78
2023/03/27 12:48:11;;;;;;;7.63;1.00;;;6.70;99.90;;;;;;5019129;28;20044;-77
2023/03/27 12:50:50;;;;;;;6.57;0.98;;;6.70;99.90;;;;;;5049114;28;20405;-79
2023/03/27 12:53:39;;;;;;;8.15;0.85;;;6.80;99.90;;;;;;5025924;28;20052;-78
2023/03/27 12:56:18;;;;;;;6.10;0.93;;;6.80;99.90;;;;;;5029605;28;20063;-78
2023/03/27 12:58:50;;;;;;;7.90;1.10;;;7.20;99.90;;;;;;5017694;28;20476;-78
2023/03/27 13:01:40;;;;;;;8.60;1.15;;;6.90;99.90;;;;;;5030323;28;20051;-78
2023/03/27 13:04:42;;;;;;;12.27;1.20;;;7.00;99.90;;;;;;5027939;28;20581;-79
2023/03/27 13:07:24;;;;;;;11.98;1.83;;;7.00;99.90;;;;;;5043962;28;20046;-78
2023/03/27 13:10:07;;;;;;;9.27;1.30;;;7.00;99.90;;;;;;5033446;28;20611;-78
2023/03/27 13:12:45;;;;;;;7.13;1.40;;;7.00;99.90;;;;;;5036349;28;20044;-79
2023/03/27 13:15:30;;;;;;;11.60;1.15;;;7.00;99.90;;;;;;5035643;28;20044;-80
2023/03/27 13:18:02;;;;;;;7.18;1.13;;;7.00;99.90;;;;;;5032672;28;20117;-79
2023/03/27 13:20:47;;;;;;;13.63;1.48;;;7.00;99.90;;;;;;5049526;28;20048;-80
2023/03/27 13:23:21;;;;;;;8.63;1.10;;;7.10;99.90;;;;;;5012207;28;20040;-78
2023/03/27 13:25:53;;;;;;;10.05;1.70;;;7.10;99.90;;;;;;5034452;28;20041;-79
2023/03/27 13:28:27;;;;;;;;;;;7.10;99.90;;;;;;5044160;28;20049;-77